Time,TemperatureF,DewpointF,PressureIn,WindDirection,WindDirectionDegrees,WindSpeedMPH,WindSpeedGustMPH,Humidity,HourlyPrecipIn,Conditions,Clouds,dailyrainin,SoftwareType,DateUTC
2013-01-08 00:00:00,26.3,15.8,30.36,WNW,298,2.0,2.0,64,0.00,,,0.00,vanprod-2.5,2013-01-08 05:00:00,
2013-01-08 00:01:00,26.2,15.7,30.36,WNW,289,2.0,3.0,64,0.00,,,0.00,vanprod-2.5,2013-01-08 05:01:00,
2013-01-08 00:06:00,26.4,15.9,30.35,West,269,2.0,3.0,64,0.00,,,0.00,vanprod-2.5,2013-01-08 05:06:00,
2013-01-08 00:11:00,26.4,16.2,30.35,West,270,4.0,5.0,65,0.00,,,0.00,vanprod-2.5,2013-01-08 05:11:00,
2013-01-08 00:16:00,26.3,16.5,30.35,SSW,210,1.0,2.0,66,0.00,,,0.00,vanprod-2.5,2013-01-08 05:16:00,
2013-01-08 00:21:00,26.3,17.5,30.34,WSW,257,2.0,4.0,69,0.00,,,0.00,vanprod-2.5,2013-01-08 05:21:00,
2013-01-08 00:26:00,26.3,17.9,30.34,West,278,3.0,3.0,70,0.00,,,0.00,vanprod-2.5,2013-01-08 05:26:00,
2013-01-08 00:31:00,26.7,18.6,30.34,WSW,242,4.0,7.0,71,0.00,,,0.00,vanprod-2.5,2013-01-08 05:31:00,
2013-01-08 00:36:00,26.8,18.7,30.34,West,260,3.0,5.0,71,0.00,,,0.00,vanprod-2.5,2013-01-08 05:36:00,
2013-01-08 00:41:00,26.7,18.2,30.34,West,267,4.0,6.0,70,0.00,,,0.00,vanprod-2.5,2013-01-08 05:41:00,
2013-01-08 00:46:00,26.8,18.7,30.33,West,274,8.0,12.0,71,0.00,,,0.00,vanprod-2.5,2013-01-08 05:46:00,
2013-01-08 00:51:00,27.0,18.9,30.33,West,272,8.0,10.0,71,0.00,,,0.00,vanprod-2.5,2013-01-08 05:51:00,
2013-01-08 00:56:00,26.8,18.7,30.33,West,269,5.0,9.0,71,0.00,,,0.00,vanprod-2.5,2013-01-08 05:56:00,
2013-01-08 01:01:00,26.5,19.0,30.33,WSW,256,6.0,10.0,73,0.00,,,0.00,vanprod-2.5,2013-01-08 06:01:00,
2013-01-08 01:06:00,26.6,20.1,30.33,West,259,4.0,7.0,76,0.00,,,0.00,vanprod-2.5,2013-01-08 06:06:00,
2013-01-08 01:11:00,26.8,20.9,30.33,West,267,5.0,9.0,78,0.00,,,0.00,vanprod-2.5,2013-01-08 06:11:00,
2013-01-08 01:16:00,27.5,22.2,30.33,WSW,251,4.0,5.0,80,0.00,,,0.00,vanprod-2.5,2013-01-08 06:16:00,
2013-01-08 01:21:00,28.1,23.0,30.32,West,262,3.0,8.0,81,0.00,,,0.00,vanprod-2.5,2013-01-08 06:21:00,
2013-01-08 01:26:00,28.8,23.7,30.32,SW,233,5.0,13.0,81,0.00,,,0.00,vanprod-2.5,2013-01-08 06:26:00,
2013-01-08 01:31:00,29.6,24.5,30.32,West,265,5.0,11.0,81,0.00,,,0.00,vanprod-2.5,2013-01-08 06:31:00,
2013-01-08 01:36:00,29.9,24.8,30.32,SW,224,5.0,8.0,81,0.00,,,0.00,vanprod-2.5,2013-01-08 06:36:00,
2013-01-08 01:41:00,30.2,25.4,30.32,West,259,5.0,10.0,82,0.00,,,0.00,vanprod-2.5,2013-01-08 06:41:00,
2013-01-08 01:46:00,30.4,25.9,30.32,SW,227,6.0,10.0,83,0.00,,,0.00,vanprod-2.5,2013-01-08 06:46:00,
2013-01-08 01:51:00,30.4,25.9,30.32,WSW,258,5.0,9.0,83,0.00,,,0.00,vanprod-2.5,2013-01-08 06:51:00,
2013-01-08 01:56:00,30.3,25.8,30.32,WSW,246,5.0,8.0,83,0.00,,,0.00,vanprod-2.5,2013-01-08 06:56:00,
2013-01-08 02:01:00,30.2,26.0,30.32,SW,233,7.0,11.0,84,0.00,,,0.00,vanprod-2.5,2013-01-08 07:01:00,
2013-01-08 02:06:00,30.3,26.3,30.31,WSW,240,5.0,9.0,85,0.00,,,0.00,vanprod-2.5,2013-01-08 07:06:00,
2013-01-08 02:11:00,30.5,26.5,30.31,SSW,206,5.0,5.0,85,0.00,,,0.00,vanprod-2.5,2013-01-08 07:11:00,
2013-01-08 02:16:00,30.7,26.7,30.31,SW,222,5.0,10.0,85,0.00,,,0.00,vanprod-2.5,2013-01-08 07:16:00,
2013-01-08 02:21:00,30.8,27.1,30.30,SSW,210,8.0,13.0,86,0.00,,,0.00,vanprod-2.5,2013-01-08 07:21:00,
2013-01-08 02:26:00,30.9,26.9,30.31,WSW,255,6.0,9.0,85,0.00,,,0.00,vanprod-2.5,2013-01-08 07:26:00,
2013-01-08 02:31:00,31.0,27.0,30.31,SW,223,5.0,6.0,85,0.00,,,0.00,vanprod-2.5,2013-01-08 07:31:00,
2013-01-08 02:36:00,30.9,26.9,30.30,SW,230,7.0,8.0,85,0.00,,,0.00,vanprod-2.5,2013-01-08 07:36:00,
2013-01-08 02:41:00,30.8,27.1,30.30,WSW,239,6.0,13.0,86,0.00,,,0.00,vanprod-2.5,2013-01-08 07:41:00,
2013-01-08 02:46:00,30.7,27.0,30.30,West,263,4.0,6.0,86,0.00,,,0.00,vanprod-2.5,2013-01-08 07:46:00,
2013-01-08 02:51:00,30.6,26.9,30.30,WSW,256,4.0,6.0,86,0.00,,,0.00,vanprod-2.5,2013-01-08 07:51:00,
2013-01-08 02:56:00,30.3,26.6,30.30,West,262,4.0,7.0,86,0.00,,,0.00,vanprod-2.5,2013-01-08 07:56:00,
2013-01-08 03:01:00,30.0,26.6,30.30,SW,225,3.0,4.0,87,0.00,,,0.00,vanprod-2.5,2013-01-08 08:01:00,
2013-01-08 03:06:00,29.8,26.4,30.30,WSW,252,3.0,7.0,87,0.00,,,0.00,vanprod-2.5,2013-01-08 08:06:00,
2013-01-08 03:11:00,29.7,26.3,30.30,WSW,257,3.0,7.0,87,0.00,,,0.00,vanprod-2.5,2013-01-08 08:11:00,
2013-01-08 03:16:00,29.5,26.1,30.30,West,262,3.0,4.0,87,0.00,,,0.00,vanprod-2.5,2013-01-08 08:16:00,
2013-01-08 03:21:00,29.2,25.8,30.30,West,260,3.0,5.0,87,0.00,,,0.00,vanprod-2.5,2013-01-08 08:21:00,
2013-01-08 03:26:00,29.2,26.1,30.30,WNW,289,3.0,5.0,88,0.00,,,0.00,vanprod-2.5,2013-01-08 08:26:00,
2013-01-08 03:31:00,29.1,26.0,30.30,West,272,2.0,4.0,88,0.00,,,0.00,vanprod-2.5,2013-01-08 08:31:00,
2013-01-08 03:36:00,29.0,25.9,30.29,WSW,252,3.0,6.0,88,0.00,,,0.00,vanprod-2.5,2013-01-08 08:36:00,
2013-01-08 03:41:00,29.1,26.0,30.29,West,269,2.0,2.0,88,0.00,,,0.00,vanprod-2.5,2013-01-08 08:41:00,
2013-01-08 03:46:00,29.0,25.9,30.29,WSW,249,2.0,4.0,88,0.00,,,0.00,vanprod-2.5,2013-01-08 08:46:00,
2013-01-08 03:51:00,29.2,26.4,30.28,WSW,256,3.0,6.0,89,0.00,,,0.00,vanprod-2.5,2013-01-08 08:51:00,
2013-01-08 03:56:00,29.3,26.7,30.29,West,279,1.0,1.0,90,0.00,,,0.00,vanprod-2.5,2013-01-08 08:56:00,
2013-01-08 04:01:00,29.4,26.8,30.29,WSW,248,3.0,5.0,90,0.00,,,0.00,vanprod-2.5,2013-01-08 09:01:00,
2013-01-08 04:06:00,29.6,27.0,30.28,West,269,3.0,5.0,90,0.00,,,0.00,vanprod-2.5,2013-01-08 09:06:00,
2013-01-08 04:11:00,29.6,27.0,30.28,West,269,3.0,4.0,90,0.00,,,0.00,vanprod-2.5,2013-01-08 09:11:00,
2013-01-08 04:16:00,29.4,26.8,30.28,WNW,282,2.0,3.0,90,0.00,,,0.00,vanprod-2.5,2013-01-08 09:16:00,
2013-01-08 04:21:00,29.3,26.7,30.28,West,274,3.0,4.0,90,0.00,,,0.00,vanprod-2.5,2013-01-08 09:21:00,
2013-01-08 04:26:00,29.1,26.5,30.27,WSW,247,3.0,7.0,90,0.00,,,0.00,vanprod-2.5,2013-01-08 09:26:00,
2013-01-08 04:31:00,29.1,26.5,30.27,West,263,5.0,9.0,90,0.00,,,0.00,vanprod-2.5,2013-01-08 09:31:00,
2013-01-08 04:36:00,29.2,26.4,30.27,SSW,208,5.0,6.0,89,0.00,,,0.00,vanprod-2.5,2013-01-08 09:36:00,
2013-01-08 04:41:00,29.6,26.8,30.27,SW,214,4.0,9.0,89,0.00,,,0.00,vanprod-2.5,2013-01-08 09:41:00,
2013-01-08 04:46:00,30.2,26.8,30.26,WSW,241,7.0,14.0,87,0.00,,,0.00,vanprod-2.5,2013-01-08 09:46:00,
2013-01-08 04:51:00,30.6,26.6,30.26,SW,228,6.0,11.0,85,0.00,,,0.00,vanprod-2.5,2013-01-08 09:51:00,
2013-01-08 04:56:00,31.1,26.6,30.26,SW,233,5.0,10.0,83,0.00,,,0.00,vanprod-2.5,2013-01-08 09:56:00,
2013-01-08 05:01:00,31.6,26.2,30.26,SW,216,7.0,10.0,80,0.00,,,0.00,vanprod-2.5,2013-01-08 10:01:00,
2013-01-08 05:06:00,32.0,25.9,30.26,West,264,6.0,9.0,78,0.00,,,0.00,vanprod-2.5,2013-01-08 10:06:00,
2013-01-08 05:11:00,32.2,25.8,30.26,SSW,200,7.0,10.0,77,0.00,,,0.00,vanprod-2.5,2013-01-08 10:11:00,
2013-01-08 05:16:00,32.4,25.4,30.26,WSW,251,10.0,17.0,75,0.00,,,0.00,vanprod-2.5,2013-01-08 10:16:00,
2013-01-08 05:21:00,32.4,25.4,30.26,West,259,4.0,6.0,75,0.00,,,0.00,vanprod-2.5,2013-01-08 10:21:00,
2013-01-08 05:26:00,32.4,25.1,30.26,SW,225,7.0,12.0,74,0.00,,,0.00,vanprod-2.5,2013-01-08 10:26:00,
2013-01-08 05:31:00,32.3,25.0,30.26,WSW,254,8.0,11.0,74,0.00,,,0.00,vanprod-2.5,2013-01-08 10:31:00,
2013-01-08 05:36:00,32.1,24.8,30.26,WSW,237,5.0,7.0,74,0.00,,,0.00,vanprod-2.5,2013-01-08 10:36:00,
2013-01-08 05:41:00,31.9,24.6,30.26,SW,229,5.0,10.0,74,0.00,,,0.00,vanprod-2.5,2013-01-08 10:41:00,
2013-01-08 05:46:00,31.9,24.6,30.26,SSW,208,6.0,10.0,74,0.00,,,0.00,vanprod-2.5,2013-01-08 10:46:00,
2013-01-08 05:51:00,31.9,24.6,30.26,WSW,256,5.0,10.0,74,0.00,,,0.00,vanprod-2.5,2013-01-08 10:51:00,
2013-01-08 05:56:00,31.8,24.5,30.26,West,263,3.0,5.0,74,0.00,,,0.00,vanprod-2.5,2013-01-08 10:56:00,
2013-01-08 06:01:00,31.9,24.2,30.27,WSW,250,6.0,12.0,73,0.00,,,0.00,vanprod-2.5,2013-01-08 11:01:00,
2013-01-08 06:06:00,31.8,24.1,30.27,West,275,5.0,11.0,73,0.00,,,0.00,vanprod-2.5,2013-01-08 11:06:00,
2013-01-08 06:11:00,31.6,24.0,30.27,WSW,239,7.0,15.0,73,0.00,,,0.00,vanprod-2.5,2013-01-08 11:11:00,
2013-01-08 06:16:00,31.5,23.9,30.27,WSW,251,8.0,14.0,73,0.00,,,0.00,vanprod-2.5,2013-01-08 11:16:00,
2013-01-08 06:21:00,31.3,23.7,30.27,WSW,252,6.0,16.0,73,0.00,,,0.00,vanprod-2.5,2013-01-08 11:21:00,
2013-01-08 06:26:00,31.2,23.6,30.26,WSW,244,6.0,10.0,73,0.00,,,0.00,vanprod-2.5,2013-01-08 11:26:00,
2013-01-08 06:31:00,31.0,23.7,30.27,WSW,245,7.0,10.0,74,0.00,,,0.00,vanprod-2.5,2013-01-08 11:31:00,
2013-01-08 06:36:00,30.9,23.6,30.26,SW,225,6.0,8.0,74,0.00,,,0.00,vanprod-2.5,2013-01-08 11:36:00,
2013-01-08 06:41:00,30.8,23.5,30.26,WSW,247,3.0,5.0,74,0.00,,,0.00,vanprod-2.5,2013-01-08 11:41:00,
2013-01-08 06:46:00,30.6,23.0,30.26,SW,236,8.0,11.0,73,0.00,,,0.00,vanprod-2.5,2013-01-08 11:46:00,
2013-01-08 06:51:00,30.5,23.2,30.26,SSW,212,9.0,9.0,74,0.00,,,0.00,vanprod-2.5,2013-01-08 11:51:00,
2013-01-08 06:56:00,30.4,23.1,30.26,West,259,5.0,8.0,74,0.00,,,0.00,vanprod-2.5,2013-01-08 11:56:00,
2013-01-08 07:01:00,30.3,23.3,30.26,WSW,251,3.0,10.0,75,0.00,,,0.00,vanprod-2.5,2013-01-08 12:01:00,
2013-01-08 07:06:00,30.1,23.1,30.26,SW,229,6.0,10.0,75,0.00,,,0.00,vanprod-2.5,2013-01-08 12:06:00,
2013-01-08 07:11:00,30.0,23.1,30.26,SW,234,6.0,9.0,75,0.00,,,0.00,vanprod-2.5,2013-01-08 12:11:00,
2013-01-08 07:16:00,29.9,23.3,30.27,SW,231,5.0,8.0,76,0.00,,,0.00,vanprod-2.5,2013-01-08 12:16:00,
2013-01-08 07:21:00,29.7,23.1,30.27,SW,222,3.0,7.0,76,0.00,,,0.00,vanprod-2.5,2013-01-08 12:21:00,
2013-01-08 07:26:00,29.7,22.8,30.26,West,260,5.0,10.0,75,0.00,,,0.00,vanprod-2.5,2013-01-08 12:26:00,
2013-01-08 07:31:00,29.7,22.8,30.27,WSW,244,5.0,6.0,75,0.00,,,0.00,vanprod-2.5,2013-01-08 12:31:00,
2013-01-08 07:36:00,29.7,23.1,30.27,SSW,205,4.0,7.0,76,0.00,,,0.00,vanprod-2.5,2013-01-08 12:36:00,
2013-01-08 07:41:00,29.7,22.8,30.27,WSW,246,6.0,10.0,75,0.00,,,0.00,vanprod-2.5,2013-01-08 12:41:00,
2013-01-08 07:46:00,29.8,22.9,30.26,SW,219,7.0,10.0,75,0.00,,,0.00,vanprod-2.5,2013-01-08 12:46:00,
2013-01-08 07:51:00,29.8,22.9,30.26,SW,215,7.0,14.0,75,0.00,,,0.00,vanprod-2.5,2013-01-08 12:51:00,
2013-01-08 07:56:00,29.9,23.0,30.26,WSW,254,8.0,10.0,75,0.00,,,0.00,vanprod-2.5,2013-01-08 12:56:00,
2013-01-08 08:01:00,29.9,22.6,30.27,WSW,245,6.0,8.0,74,0.00,,,0.00,vanprod-2.5,2013-01-08 13:01:00,
2013-01-08 08:06:00,29.8,22.5,30.26,SW,227,7.0,14.0,74,0.00,,,0.00,vanprod-2.5,2013-01-08 13:06:00,
2013-01-08 08:11:00,29.8,22.9,30.26,SSW,196,6.0,14.0,75,0.00,,,0.00,vanprod-2.5,2013-01-08 13:11:00,
2013-01-08 08:16:00,29.9,23.0,30.26,SW,220,6.0,15.0,75,0.00,,,0.00,vanprod-2.5,2013-01-08 13:16:00,
2013-01-08 08:21:00,30.0,23.1,30.26,WSW,253,5.0,8.0,75,0.00,,,0.00,vanprod-2.5,2013-01-08 13:21:00,
2013-01-08 08:26:00,30.1,23.1,30.26,SW,231,5.0,7.0,75,0.00,,,0.00,vanprod-2.5,2013-01-08 13:26:00,
2013-01-08 08:31:00,30.2,23.2,30.26,West,270,5.0,7.0,75,0.00,,,0.00,vanprod-2.5,2013-01-08 13:31:00,
2013-01-08 08:36:00,30.2,23.6,30.26,WSW,254,8.0,11.0,76,0.00,,,0.00,vanprod-2.5,2013-01-08 13:36:00,
2013-01-08 08:41:00,30.2,23.6,30.26,West,274,5.0,6.0,76,0.00,,,0.00,vanprod-2.5,2013-01-08 13:41:00,
2013-01-08 08:46:00,30.2,23.6,30.27,West,265,7.0,7.0,76,0.00,,,0.00,vanprod-2.5,2013-01-08 13:46:00,
2013-01-08 08:51:00,30.2,23.6,30.27,WNW,286,5.0,5.0,76,0.00,,,0.00,vanprod-2.5,2013-01-08 13:51:00,
2013-01-08 08:56:00,30.2,23.6,30.27,WSW,250,5.0,5.0,76,0.00,,,0.00,vanprod-2.5,2013-01-08 13:56:00,
2013-01-08 09:01:00,30.1,23.5,30.27,WNW,292,6.0,11.0,76,0.00,,,0.00,vanprod-2.5,2013-01-08 14:01:00,
2013-01-08 09:06:00,30.1,23.5,30.27,WSW,252,7.0,9.0,76,0.00,,,0.00,vanprod-2.5,2013-01-08 14:06:00,
2013-01-08 09:11:00,30.1,23.5,30.27,West,265,7.0,11.0,76,0.00,,,0.00,vanprod-2.5,2013-01-08 14:11:00,
2013-01-08 09:16:00,30.1,23.5,30.27,West,280,5.0,8.0,76,0.00,,,0.00,vanprod-2.5,2013-01-08 14:16:00,
2013-01-08 09:21:00,30.4,23.8,30.27,West,268,4.0,8.0,76,0.00,,,0.00,vanprod-2.5,2013-01-08 14:21:00,
2013-01-08 09:26:00,30.8,23.8,30.27,SSW,212,4.0,9.0,75,0.00,,,0.00,vanprod-2.5,2013-01-08 14:26:00,
2013-01-08 09:31:00,31.1,23.8,30.26,WSW,247,9.0,10.0,74,0.00,,,0.00,vanprod-2.5,2013-01-08 14:31:00,
2013-01-08 09:36:00,31.4,24.1,30.26,WSW,256,9.0,12.0,74,0.00,,,0.00,vanprod-2.5,2013-01-08 14:36:00,
2013-01-08 09:41:00,31.4,23.8,30.26,SW,229,10.0,15.0,73,0.00,,,0.00,vanprod-2.5,2013-01-08 14:41:00,
2013-01-08 09:46:00,31.6,24.0,30.25,SW,216,10.0,11.0,73,0.00,,,0.00,vanprod-2.5,2013-01-08 14:46:00,
2013-01-08 09:51:00,31.9,23.9,30.25,WSW,253,12.0,16.0,72,0.00,,,0.00,vanprod-2.5,2013-01-08 14:51:00,
2013-01-08 09:56:00,32.0,24.0,30.25,SW,236,10.0,17.0,72,0.00,,,0.00,vanprod-2.5,2013-01-08 14:56:00,
2013-01-08 10:01:00,32.0,24.0,30.25,WSW,241,9.0,15.0,72,0.00,,,0.00,vanprod-2.5,2013-01-08 15:01:00,
2013-01-08 10:06:00,32.2,24.2,30.25,WSW,253,7.0,13.0,72,0.00,,,0.00,vanprod-2.5,2013-01-08 15:06:00,
2013-01-08 10:11:00,32.4,24.4,30.25,WSW,255,6.0,10.0,72,0.00,,,0.00,vanprod-2.5,2013-01-08 15:11:00,
2013-01-08 10:16:00,32.7,24.7,30.25,WSW,248,5.0,9.0,72,0.00,,,0.00,vanprod-2.5,2013-01-08 15:16:00,
2013-01-08 10:21:00,32.9,24.2,30.24,WSW,252,8.0,16.0,70,0.00,,,0.00,vanprod-2.5,2013-01-08 15:21:00,
2013-01-08 10:26:00,33.2,24.5,30.24,SW,221,7.0,13.0,70,0.00,,,0.00,vanprod-2.5,2013-01-08 15:26:00,
2013-01-08 10:31:00,33.3,24.6,30.24,WSW,239,9.0,19.0,70,0.00,,,0.00,vanprod-2.5,2013-01-08 15:31:00,
2013-01-08 10:36:00,33.6,24.5,30.23,SW,214,8.0,11.0,69,0.00,,,0.00,vanprod-2.5,2013-01-08 15:36:00,
2013-01-08 10:41:00,33.8,24.7,30.23,WSW,253,7.0,9.0,69,0.00,,,0.00,vanprod-2.5,2013-01-08 15:41:00,
2013-01-08 10:46:00,34.2,24.8,30.23,WSW,255,8.0,15.0,68,0.00,,,0.00,vanprod-2.5,2013-01-08 15:46:00,
2013-01-08 10:51:00,34.4,24.9,30.23,West,262,7.0,17.0,68,0.00,,,0.00,vanprod-2.5,2013-01-08 15:51:00,
2013-01-08 10:56:00,34.6,25.1,30.23,West,280,6.0,14.0,68,0.00,,,0.00,vanprod-2.5,2013-01-08 15:56:00,
2013-01-08 11:01:00,34.9,25.1,30.22,West,280,6.0,14.0,67,0.00,,,0.00,vanprod-2.5,2013-01-08 16:01:00,
2013-01-08 11:06:00,35.1,25.3,30.22,WSW,245,7.0,13.0,67,0.00,,,0.00,vanprod-2.5,2013-01-08 16:06:00,
2013-01-08 11:11:00,35.2,25.0,30.22,WSW,258,9.0,14.0,66,0.00,,,0.00,vanprod-2.5,2013-01-08 16:11:00,
2013-01-08 11:16:00,35.1,24.5,30.22,West,261,8.0,12.0,65,0.00,,,0.00,vanprod-2.5,2013-01-08 16:16:00,
2013-01-08 11:21:00,35.2,24.6,30.22,SW,236,8.0,10.0,65,0.00,,,0.00,vanprod-2.5,2013-01-08 16:21:00,
2013-01-08 11:26:00,35.5,25.3,30.22,West,264,5.0,6.0,66,0.00,,,0.00,vanprod-2.5,2013-01-08 16:26:00,
2013-01-08 11:31:00,35.7,25.5,30.21,WSW,244,6.0,13.0,66,0.00,,,0.00,vanprod-2.5,2013-01-08 16:31:00,
2013-01-08 11:36:00,35.8,24.8,30.21,WNW,282,9.0,13.0,64,0.00,,,0.00,vanprod-2.5,2013-01-08 16:36:00,
2013-01-08 11:41:00,36.1,25.5,30.21,West,271,4.0,7.0,65,0.00,,,0.00,vanprod-2.5,2013-01-08 16:41:00,
2013-01-08 11:46:00,36.6,25.2,30.21,WNW,297,6.0,7.0,63,0.00,,,0.00,vanprod-2.5,2013-01-08 16:46:00,
2013-01-08 11:51:00,36.9,25.1,30.20,West,266,6.0,13.0,62,0.00,,,0.00,vanprod-2.5,2013-01-08 16:51:00,
2013-01-08 11:56:00,37.3,25.5,30.21,SW,235,6.0,9.0,62,0.00,,,0.00,vanprod-2.5,2013-01-08 16:56:00,
2013-01-08 12:01:00,37.5,25.7,30.21,WSW,248,8.0,10.0,62,0.00,,,0.00,vanprod-2.5,2013-01-08 17:01:00,
2013-01-08 12:06:00,37.8,26.0,30.21,SSW,201,5.0,11.0,62,0.00,,,0.00,vanprod-2.5,2013-01-08 17:06:00,
2013-01-08 12:11:00,38.1,25.9,30.20,West,274,6.0,12.0,61,0.00,,,0.00,vanprod-2.5,2013-01-08 17:11:00,
2013-01-08 12:16:00,38.2,25.6,30.20,West,265,7.0,15.0,60,0.00,,,0.00,vanprod-2.5,2013-01-08 17:16:00,
2013-01-08 12:21:00,38.5,25.4,30.20,West,276,7.0,10.0,59,0.00,,,0.00,vanprod-2.5,2013-01-08 17:21:00,
2013-01-08 12:26:00,39.0,25.9,30.20,WSW,257,7.0,12.0,59,0.00,,,0.00,vanprod-2.5,2013-01-08 17:26:00,
2013-01-08 12:31:00,39.1,25.6,30.20,West,270,7.0,10.0,58,0.00,,,0.00,vanprod-2.5,2013-01-08 17:31:00,
2013-01-08 12:36:00,39.4,25.4,30.20,WSW,253,8.0,11.0,57,0.00,,,0.00,vanprod-2.5,2013-01-08 17:36:00,
2013-01-08 12:41:00,39.6,25.6,30.20,West,273,7.0,11.0,57,0.00,,,0.00,vanprod-2.5,2013-01-08 17:41:00,
2013-01-08 12:46:00,39.6,25.2,30.19,West,263,9.0,13.0,56,0.00,,,0.00,vanprod-2.5,2013-01-08 17:46:00,
2013-01-08 12:51:00,39.8,25.4,30.19,WSW,254,8.0,12.0,56,0.00,,,0.00,vanprod-2.5,2013-01-08 17:51:00,
2013-01-08 12:56:00,39.9,25.5,30.19,WSW,258,9.0,11.0,56,0.00,,,0.00,vanprod-2.5,2013-01-08 17:56:00,
2013-01-08 13:01:00,40.0,24.7,30.19,West,260,9.0,11.0,54,0.00,,,0.00,vanprod-2.5,2013-01-08 18:01:00,
2013-01-08 13:06:00,40.2,25.3,30.19,West,266,7.0,10.0,55,0.00,,,0.00,vanprod-2.5,2013-01-08 18:06:00,
2013-01-08 13:11:00,40.3,25.4,30.19,West,265,8.0,10.0,55,0.00,,,0.00,vanprod-2.5,2013-01-08 18:11:00,
2013-01-08 13:16:00,40.6,26.1,30.19,West,271,6.0,9.0,56,0.00,,,0.00,vanprod-2.5,2013-01-08 18:16:00,
2013-01-08 13:21:00,40.8,25.9,30.19,West,272,6.0,10.0,55,0.00,,,0.00,vanprod-2.5,2013-01-08 18:21:00,
2013-01-08 13:26:00,40.9,25.6,30.19,West,263,6.0,12.0,54,0.00,,,0.00,vanprod-2.5,2013-01-08 18:26:00,
2013-01-08 13:31:00,40.9,25.6,30.19,WSW,256,6.0,10.0,54,0.00,,,0.00,vanprod-2.5,2013-01-08 18:31:00,
2013-01-08 13:36:00,40.9,25.1,30.19,West,277,7.0,11.0,53,0.00,,,0.00,vanprod-2.5,2013-01-08 18:36:00,
2013-01-08 13:41:00,40.9,25.6,30.19,WSW,252,6.0,9.0,54,0.00,,,0.00,vanprod-2.5,2013-01-08 18:41:00,
2013-01-08 13:46:00,41.0,25.6,30.19,West,274,4.0,8.0,54,0.00,,,0.00,vanprod-2.5,2013-01-08 18:46:00,
2013-01-08 13:51:00,41.0,25.2,30.20,West,275,4.0,4.0,53,0.00,,,0.00,vanprod-2.5,2013-01-08 18:51:00,
2013-01-08 13:56:00,41.1,26.2,30.19,West,267,4.0,5.0,55,0.00,,,0.00,vanprod-2.5,2013-01-08 18:56:00,
2013-01-08 14:01:00,41.2,25.8,30.20,West,271,7.0,12.0,54,0.00,,,0.00,vanprod-2.5,2013-01-08 19:01:00,
2013-01-08 14:06:00,41.4,26.0,30.20,West,268,7.0,10.0,54,0.00,,,0.00,vanprod-2.5,2013-01-08 19:06:00,
2013-01-08 14:11:00,41.5,25.2,30.20,WNW,285,7.0,8.0,52,0.00,,,0.00,vanprod-2.5,2013-01-08 19:11:00,
2013-01-08 14:16:00,41.6,25.3,30.20,WNW,287,7.0,8.0,52,0.00,,,0.00,vanprod-2.5,2013-01-08 19:16:00,
2013-01-08 14:21:00,41.6,25.3,30.20,West,276,7.0,9.0,52,0.00,,,0.00,vanprod-2.5,2013-01-08 19:21:00,
2013-01-08 14:26:00,41.7,25.8,30.20,West,269,6.0,7.0,53,0.00,,,0.00,vanprod-2.5,2013-01-08 19:26:00,
2013-01-08 14:31:00,41.8,25.5,30.20,West,273,5.0,7.0,52,0.00,,,0.00,vanprod-2.5,2013-01-08 19:31:00,
2013-01-08 14:36:00,42.0,25.2,30.20,WSW,254,7.0,11.0,51,0.00,,,0.00,vanprod-2.5,2013-01-08 19:36:00,
2013-01-08 14:41:00,42.5,25.2,30.20,West,265,6.0,11.0,50,0.00,,,0.00,vanprod-2.5,2013-01-08 19:41:00,
2013-01-08 14:46:00,42.8,25.0,30.20,West,259,6.0,6.0,49,0.00,,,0.00,vanprod-2.5,2013-01-08 19:46:00,
2013-01-08 14:51:00,42.9,25.6,30.21,WSW,255,3.0,4.0,50,0.00,,,0.00,vanprod-2.5,2013-01-08 19:51:00,
2013-01-08 14:56:00,42.6,24.8,30.21,West,269,5.0,6.0,49,0.00,,,0.00,vanprod-2.5,2013-01-08 19:56:00,
2013-01-08 15:01:00,42.3,25.0,30.21,West,261,7.0,9.0,50,0.00,,,0.00,vanprod-2.5,2013-01-08 20:01:00,
2013-01-08 15:06:00,42.3,25.5,30.21,West,263,5.0,6.0,51,0.00,,,0.00,vanprod-2.5,2013-01-08 20:06:00,
2013-01-08 15:11:00,42.0,25.2,30.21,West,278,6.0,10.0,51,0.00,,,0.00,vanprod-2.5,2013-01-08 20:11:00,
2013-01-08 15:16:00,41.7,25.4,30.22,WNW,284,6.0,7.0,52,0.00,,,0.00,vanprod-2.5,2013-01-08 20:16:00,
2013-01-08 15:21:00,41.5,25.7,30.22,West,265,5.0,11.0,53,0.00,,,0.00,vanprod-2.5,2013-01-08 20:21:00,
2013-01-08 15:26:00,41.5,24.7,30.22,West,275,6.0,9.0,51,0.00,,,0.00,vanprod-2.5,2013-01-08 20:26:00,
2013-01-08 15:31:00,41.4,25.1,30.22,West,270,5.0,8.0,52,0.00,,,0.00,vanprod-2.5,2013-01-08 20:31:00,
2013-01-08 15:36:00,41.4,25.1,30.23,West,268,6.0,9.0,52,0.00,,,0.00,vanprod-2.5,2013-01-08 20:36:00,
2013-01-08 15:41:00,41.3,25.5,30.23,WNW,283,4.0,7.0,53,0.00,,,0.00,vanprod-2.5,2013-01-08 20:41:00,
2013-01-08 15:46:00,41.2,25.4,30.23,West,275,5.0,6.0,53,0.00,,,0.00,vanprod-2.5,2013-01-08 20:46:00,
2013-01-08 15:51:00,41.1,25.3,30.23,West,276,5.0,7.0,53,0.00,,,0.00,vanprod-2.5,2013-01-08 20:51:00,
2013-01-08 15:56:00,41.3,25.0,30.23,West,272,6.0,10.0,52,0.00,,,0.00,vanprod-2.5,2013-01-08 20:56:00,
2013-01-08 16:01:00,41.2,25.4,30.23,West,274,6.0,9.0,53,0.00,,,0.00,vanprod-2.5,2013-01-08 21:01:00,
2013-01-08 16:06:00,41.0,25.2,30.23,West,270,4.0,7.0,53,0.00,,,0.00,vanprod-2.5,2013-01-08 21:06:00,
2013-01-08 16:11:00,40.8,25.5,30.23,West,260,3.0,4.0,54,0.00,,,0.00,vanprod-2.5,2013-01-08 21:11:00,
2013-01-08 16:16:00,40.6,25.7,30.23,West,263,6.0,13.0,55,0.00,,,0.00,vanprod-2.5,2013-01-08 21:16:00,
2013-01-08 16:21:00,40.5,25.2,30.24,WNW,285,4.0,8.0,54,0.00,,,0.00,vanprod-2.5,2013-01-08 21:21:00,
2013-01-08 16:26:00,40.4,24.6,30.24,West,277,4.0,8.0,53,0.00,,,0.00,vanprod-2.5,2013-01-08 21:26:00,
2013-01-08 16:31:00,40.4,24.6,30.24,West,277,3.0,4.0,53,0.00,,,0.00,vanprod-2.5,2013-01-08 21:31:00,
2013-01-08 16:36:00,40.2,24.5,30.25,West,274,2.0,3.0,53,0.00,,,0.00,vanprod-2.5,2013-01-08 21:36:00,
2013-01-08 16:41:00,39.9,24.2,30.25,West,274,3.0,5.0,53,0.00,,,0.00,vanprod-2.5,2013-01-08 21:41:00,
2013-01-08 16:46:00,39.9,24.2,30.25,West,272,4.0,6.0,53,0.00,,,0.00,vanprod-2.5,2013-01-08 21:46:00,
2013-01-08 16:51:00,39.9,24.2,30.25,West,275,4.0,5.0,53,0.00,,,0.00,vanprod-2.5,2013-01-08 21:51:00,
2013-01-08 16:56:00,39.8,24.1,30.25,West,267,3.0,4.0,53,0.00,,,0.00,vanprod-2.5,2013-01-08 21:56:00,
2013-01-08 17:01:00,39.7,24.0,30.25,WNW,288,3.0,6.0,53,0.00,,,0.00,vanprod-2.5,2013-01-08 22:01:00,
2013-01-08 17:06:00,39.6,23.9,30.25,West,263,4.0,4.0,53,0.00,,,0.00,vanprod-2.5,2013-01-08 22:06:00,
2013-01-08 17:11:00,39.4,24.2,30.25,West,272,3.0,5.0,54,0.00,,,0.00,vanprod-2.5,2013-01-08 22:11:00,
2013-01-08 17:16:00,39.2,24.4,30.25,WSW,250,3.0,3.0,55,0.00,,,0.00,vanprod-2.5,2013-01-08 22:16:00,
2013-01-08 17:21:00,39.1,24.3,30.26,West,273,2.0,2.0,55,0.00,,,0.00,vanprod-2.5,2013-01-08 22:21:00,
2013-01-08 17:26:00,38.8,24.9,30.26,West,278,1.0,4.0,57,0.00,,,0.00,vanprod-2.5,2013-01-08 22:26:00,
2013-01-08 17:31:00,38.6,25.5,30.27,West,259,2.0,4.0,59,0.00,,,0.00,vanprod-2.5,2013-01-08 22:31:00,
2013-01-08 17:36:00,38.5,25.8,30.27,West,269,1.0,2.0,60,0.00,,,0.00,vanprod-2.5,2013-01-08 22:36:00,
2013-01-08 17:41:00,38.4,25.3,30.27,WSW,249,1.0,3.0,59,0.00,,,0.00,vanprod-2.5,2013-01-08 22:41:00,
2013-01-08 17:46:00,38.3,24.8,30.27,West,264,2.0,3.0,58,0.00,,,0.00,vanprod-2.5,2013-01-08 22:46:00,
2013-01-08 17:51:00,38.1,24.6,30.27,WSW,258,2.0,2.0,58,0.00,,,0.00,vanprod-2.5,2013-01-08 22:51:00,
2013-01-08 17:56:00,38.0,24.6,30.28,NNE,14,1.0,3.0,58,0.00,,,0.00,vanprod-2.5,2013-01-08 22:56:00,
2013-01-08 18:01:00,38.1,24.2,30.28,WNW,285,1.0,2.0,57,0.00,,,0.00,vanprod-2.5,2013-01-08 23:01:00,
2013-01-08 18:06:00,38.1,24.2,30.28,West,265,2.0,3.0,57,0.00,,,0.00,vanprod-2.5,2013-01-08 23:06:00,
2013-01-08 18:11:00,38.1,24.2,30.29,West,271,2.0,4.0,57,0.00,,,0.00,vanprod-2.5,2013-01-08 23:11:00,
2013-01-08 18:16:00,38.2,24.3,30.29,West,271,2.0,2.0,57,0.00,,,0.00,vanprod-2.5,2013-01-08 23:16:00,
2013-01-08 18:21:00,38.2,23.9,30.29,WNW,290,2.0,4.0,56,0.00,,,0.00,vanprod-2.5,2013-01-08 23:21:00,
2013-01-08 18:26:00,37.9,24.0,30.29,North,357,1.0,3.0,57,0.00,,,0.00,vanprod-2.5,2013-01-08 23:26:00,
2013-01-08 18:31:00,37.7,23.9,30.29,NNW,338,1.0,1.0,57,0.00,,,0.00,vanprod-2.5,2013-01-08 23:31:00,
2013-01-08 18:36:00,37.5,24.5,30.29,WNW,298,1.0,2.0,59,0.00,,,0.00,vanprod-2.5,2013-01-08 23:36:00,
2013-01-08 18:41:00,37.3,24.7,30.29,NNE,26,1.0,2.0,60,0.00,,,0.00,vanprod-2.5,2013-01-08 23:41:00,
2013-01-08 18:46:00,36.9,25.5,30.30,North,3,1.0,2.0,63,0.00,,,0.00,vanprod-2.5,2013-01-08 23:46:00,
2013-01-08 18:51:00,36.6,25.6,30.30,NNW,332,1.0,1.0,64,0.00,,,0.00,vanprod-2.5,2013-01-08 23:51:00,
2013-01-08 18:56:00,35.8,25.2,30.30,NNW,345,1.0,1.0,65,0.00,,,0.00,vanprod-2.5,2013-01-08 23:56:00,
2013-01-08 19:01:00,35.2,25.4,30.30,North,354,0.0,1.0,67,0.00,,,0.00,vanprod-2.5,2013-01-09 00:01:00,
2013-01-08 19:06:00,34.9,25.4,30.31,NNW,335,0.0,1.0,68,0.00,,,0.00,vanprod-2.5,2013-01-09 00:06:00,
2013-01-08 19:11:00,34.7,25.6,30.31,North,358,0.0,1.0,69,0.00,,,0.00,vanprod-2.5,2013-01-09 00:11:00,
2013-01-08 19:16:00,34.7,25.6,30.31,WNW,290,0.0,1.0,69,0.00,,,0.00,vanprod-2.5,2013-01-09 00:16:00,
2013-01-08 19:21:00,34.6,25.5,30.31,WNW,291,0.0,1.0,69,0.00,,,0.00,vanprod-2.5,2013-01-09 00:21:00,
2013-01-08 19:26:00,34.6,24.8,30.31,NW,321,1.0,1.0,67,0.00,,,0.00,vanprod-2.5,2013-01-09 00:26:00,
2013-01-08 19:31:00,34.7,24.5,30.31,NNW,343,0.0,0.0,66,0.00,,,0.00,vanprod-2.5,2013-01-09 00:31:00,
2013-01-08 19:36:00,34.8,24.6,30.31,NNW,348,0.0,1.0,66,0.00,,,0.00,vanprod-2.5,2013-01-09 00:36:00,
2013-01-08 19:41:00,34.9,24.7,30.31,West,276,1.0,1.0,66,0.00,,,0.00,vanprod-2.5,2013-01-09 00:41:00,
2013-01-08 19:46:00,34.5,24.7,30.31,North,1,1.0,1.0,67,0.00,,,0.00,vanprod-2.5,2013-01-09 00:46:00,
2013-01-08 19:51:00,34.5,25.4,30.31,WNW,297,1.0,1.0,69,0.00,,,0.00,vanprod-2.5,2013-01-09 00:51:00,
2013-01-08 19:56:00,34.5,25.7,30.31,WNW,302,0.0,1.0,70,0.00,,,0.00,vanprod-2.5,2013-01-09 00:56:00,
2013-01-08 20:01:00,34.3,25.5,30.31,WNW,286,0.0,0.0,70,0.00,,,0.00,vanprod-2.5,2013-01-09 01:01:00,
2013-01-08 20:06:00,33.9,24.8,30.31,West,267,1.0,2.0,69,0.00,,,0.00,vanprod-2.5,2013-01-09 01:06:00,
2013-01-08 20:11:00,34.2,25.1,30.31,SW,227,2.0,2.0,69,0.00,,,0.00,vanprod-2.5,2013-01-09 01:11:00,
2013-01-08 20:16:00,34.3,25.9,30.31,WNW,288,1.0,1.0,71,0.00,,,0.00,vanprod-2.5,2013-01-09 01:16:00,
2013-01-08 20:21:00,33.9,25.2,30.31,WNW,303,1.0,1.0,70,0.00,,,0.00,vanprod-2.5,2013-01-09 01:21:00,
2013-01-08 20:26:00,33.5,24.4,30.32,NW,316,0.0,0.0,69,0.00,,,0.00,vanprod-2.5,2013-01-09 01:26:00,
2013-01-08 20:31:00,33.3,24.6,30.32,NW,316,1.0,2.0,70,0.00,,,0.00,vanprod-2.5,2013-01-09 01:31:00,
2013-01-08 20:36:00,32.9,24.2,30.32,NNW,346,1.0,2.0,70,0.00,,,0.00,vanprod-2.5,2013-01-09 01:36:00,
2013-01-08 20:41:00,32.2,25.2,30.32,NNE,13,1.0,1.0,75,0.00,,,0.00,vanprod-2.5,2013-01-09 01:41:00,
2013-01-08 20:46:00,32.5,26.7,30.32,North,8,0.0,1.0,79,0.00,,,0.00,vanprod-2.5,2013-01-09 01:46:00,
2013-01-08 20:51:00,32.9,27.1,30.32,North,4,0.0,0.0,79,0.00,,,0.00,vanprod-2.5,2013-01-09 01:51:00,
2013-01-08 20:56:00,32.8,27.3,30.32,NNW,336,1.0,1.0,80,0.00,,,0.00,vanprod-2.5,2013-01-09 01:56:00,
2013-01-08 21:01:00,32.5,27.0,30.32,NNW,335,1.0,1.0,80,0.00,,,0.00,vanprod-2.5,2013-01-09 02:01:00,
2013-01-08 21:06:00,32.1,27.2,30.32,NW,320,1.0,1.0,82,0.00,,,0.00,vanprod-2.5,2013-01-09 02:06:00,
2013-01-08 21:11:00,32.0,27.1,30.32,NW,320,0.0,0.0,82,0.00,,,0.00,vanprod-2.5,2013-01-09 02:11:00,
2013-01-08 21:16:00,32.0,27.4,30.33,NW,320,0.0,0.0,83,0.00,,,0.00,vanprod-2.5,2013-01-09 02:16:00,
2013-01-08 21:21:00,31.7,27.4,30.32,NW,320,0.0,1.0,84,0.00,,,0.00,vanprod-2.5,2013-01-09 02:21:00,
2013-01-08 21:26:00,31.5,26.9,30.33,NNE,14,1.0,1.0,83,0.00,,,0.00,vanprod-2.5,2013-01-09 02:26:00,
2013-01-08 21:32:00,31.3,27.0,30.33,NNE,13,0.0,1.0,84,0.00,,,0.00,vanprod-2.5,2013-01-09 02:32:00,
2013-01-08 21:37:00,31.5,27.5,30.33,NNW,340,0.0,0.0,85,0.00,,,0.00,vanprod-2.5,2013-01-09 02:37:00,
2013-01-08 21:42:00,31.5,27.2,30.34,North,350,1.0,1.0,84,0.00,,,0.00,vanprod-2.5,2013-01-09 02:42:00,
2013-01-08 21:47:00,31.4,27.4,30.33,North,350,0.0,0.0,85,0.00,,,0.00,vanprod-2.5,2013-01-09 02:47:00,
2013-01-08 21:52:00,30.9,26.6,30.34,North,356,1.0,1.0,84,0.00,,,0.00,vanprod-2.5,2013-01-09 02:52:00,
2013-01-08 21:57:00,30.7,26.7,30.34,WNW,298,1.0,0.0,85,0.00,,,0.00,vanprod-2.5,2013-01-09 02:57:00,
2013-01-08 22:02:00,30.7,27.0,30.34,NNW,348,1.0,0.0,86,0.00,,,0.00,vanprod-2.5,2013-01-09 03:02:00,
2013-01-08 22:07:00,31.0,27.0,30.34,North,349,0.0,1.0,85,0.00,,,0.00,vanprod-2.5,2013-01-09 03:07:00,
2013-01-08 22:12:00,30.9,26.6,30.34,North,355,1.0,0.0,84,0.00,,,0.00,vanprod-2.5,2013-01-09 03:12:00,
2013-01-08 22:17:00,31.0,26.5,30.35,NNE,20,1.0,0.0,83,0.00,,,0.00,vanprod-2.5,2013-01-09 03:17:00,
2013-01-08 22:22:00,31.0,26.2,30.35,North,356,0.0,1.0,82,0.00,,,0.00,vanprod-2.5,2013-01-09 03:22:00,
2013-01-08 22:27:00,31.1,26.3,30.35,North,353,1.0,1.0,82,0.00,,,0.00,vanprod-2.5,2013-01-09 03:27:00,
2013-01-08 22:32:00,31.1,26.6,30.36,North,353,0.0,0.0,83,0.00,,,0.00,vanprod-2.5,2013-01-09 03:32:00,
2013-01-08 22:37:00,31.4,26.6,30.35,North,1,0.0,0.0,82,0.00,,,0.00,vanprod-2.5,2013-01-09 03:37:00,
2013-01-08 22:42:00,31.5,26.4,30.36,North,9,1.0,1.0,81,0.00,,,0.00,vanprod-2.5,2013-01-09 03:42:00,
2013-01-08 22:47:00,31.3,26.2,30.36,North,356,1.0,4.0,81,0.00,,,0.00,vanprod-2.5,2013-01-09 03:47:00,
2013-01-08 22:52:00,31.4,25.7,30.36,NE,52,1.0,2.0,79,0.00,,,0.00,vanprod-2.5,2013-01-09 03:52:00,
2013-01-08 22:57:00,31.4,25.3,30.36,NE,43,0.0,1.0,78,0.00,,,0.00,vanprod-2.5,2013-01-09 03:57:00,
2013-01-08 23:02:00,31.3,24.6,30.36,NE,46,1.0,0.0,76,0.00,,,0.00,vanprod-2.5,2013-01-09 04:02:00,
2013-01-08 23:07:00,31.2,24.2,30.36,NE,42,0.0,0.0,75,0.00,,,0.00,vanprod-2.5,2013-01-09 04:07:00,
2013-01-08 23:12:00,30.9,24.2,30.36,NE,35,0.0,0.0,76,0.00,,,0.00,vanprod-2.5,2013-01-09 04:12:00,
2013-01-08 23:17:00,30.6,23.9,30.36,NE,41,0.0,0.0,76,0.00,,,0.00,vanprod-2.5,2013-01-09 04:17:00,
2013-01-08 23:22:00,30.5,24.2,30.36,North,6,1.0,0.0,77,0.00,,,0.00,vanprod-2.5,2013-01-09 04:22:00,
2013-01-08 23:27:00,30.5,24.2,30.35,North,6,0.0,0.0,77,0.00,,,0.00,vanprod-2.5,2013-01-09 04:27:00,
2013-01-08 23:32:00,30.6,24.3,30.36,NE,53,1.0,2.0,77,0.00,,,0.00,vanprod-2.5,2013-01-09 04:32:00,
2013-01-08 23:37:00,31.1,24.1,30.36,NNE,29,2.0,2.0,75,0.00,,,0.00,vanprod-2.5,2013-01-09 04:37:00,
2013-01-08 23:42:00,31.1,24.4,30.36,NNE,13,0.0,1.0,76,0.00,,,0.00,vanprod-2.5,2013-01-09 04:42:00,
2013-01-08 23:47:00,31.0,24.3,30.35,North,6,0.0,0.0,76,0.00,,,0.00,vanprod-2.5,2013-01-09 04:47:00,
2013-01-08 23:52:00,30.8,24.5,30.36,North,9,0.0,0.0,77,0.00,,,0.00,vanprod-2.5,2013-01-09 04:52:00,
2013-01-08 23:57:00,30.5,24.2,30.36,North,9,0.0,0.0,77,0.00,,,0.00,vanprod-2.5,2013-01-09 04:57:00,